Bryce Canyon, UT

10:21 PM MDT on September 30, 2014 (GMT -0600)
RAWS BRYCE CANYON UT US | Change Station
CLOSE
Current Station
Personal Weather Station
Location: Bryce, UT
Elevation: 7854 ft
Nearby Weather Stations

Elev 7854 ft 37.64 °N, 112.17 °W | Updated 58 minutes ago

Clear
Clear
38 °F
Feels Like 38 °F
N
0
Wind Variable Wind from North
Gusts 2.0 mph

Today
High -- | Low -- °F
--% Chance of Precip.
Yesterday
High -- | Low -- °F
Precip. -- in
7:23 AM 7:13 PM
Waxing Crescent, 43% visible
Pressure 29.85 in
Visibility 10.0 miles
Clouds Clear
Windchill 38 °F
Dew Point 31 °F
Humidity 77%
Rainfall 0.00 in
Snow Depth 1 in , 1 in , 0 in
UV 0 out of 12
Pollen 4.50 out of 12
Air Quality Not available.
Flu Activity Not available.
METAR KBCE 010353Z AUTO 25008KT 10SM CLR 04/01 A3005 RMK AO2 SLP106 T00390006

More Conditions Fewer Conditions

Pressure 29.85 in
Visibility 10.0 miles
Clouds Clear
Windchill 38 °F
Dew Point 31 °F
Humidity 77%
Rainfall 0.00 in
Snow Depth 1 in , 1 in , 0 in
UV 0 out of 12
Pollen 4.50 out of 12
Air Quality Not available.
Flu Activity Not available.
METAR KBCE 010353Z AUTO 25008KT 10SM CLR 04/01 A3005 RMK AO2 SLP106 T00390006

More Conditions Fewer Conditions

10-Day Weather Forecast

Almanac

Astronomy

Sep. 30, 2014 Rise Set
Actual Time 7:23 AM MDT 7:13 PM MDT
Civil Twilight 6:57 AM MDT 7:39 PM MDT
Nautical Twilight 6:26 AM MDT 8:09 PM MDT
Astronomical Twilight 5:56 AM MDT 8:40 PM MDT
Moon 1:29 PM MDT (9/30) 11:52 PM MDT (9/30)
Length of Visible Light 12h 41m
Length of Day
11h 49m
Tomorrow will be 2m 24s shorter.
Waxing Crescent, 43% of the Moon is Illuminated
Oct 1
Waxing Crescent
Oct 1
First Quarter
Oct 8
Full
Oct 15
Last Quarter
Oct 23
New

Yesterday's Extremes

State Highs State Lows

Community

WunderPhotos

Upload Photos

1,757,841 photos uploaded!

Nearby

Snow Depth

Station Depth Elevation
King's Cabin 1 in 8730 ft
Brighton 1 in 8750 ft
Currant Creek 0 in 8000 ft
Chalk Creek #1 1 in 9100 ft
Farmington 0 in 8000 ft

Earthquake Activity

City Distance Mag. Time & Date
No recent earthquake activity has been reported nearby.
Minimum magnitude displayed is 2.5.

Coastal Water Temperatures

Place Temperature
No Stations Reporting

Nearby Weather Stations